createdAt,value
2022-10-19T00:00:37.490Z,1010.55
2022-10-19T00:01:37.539Z,1010.57
2022-10-19T00:02:37.471Z,1010.55
2022-10-19T00:03:37.540Z,1010.57
2022-10-19T00:04:37.427Z,1010.60
2022-10-19T00:05:37.452Z,1010.63
2022-10-19T00:06:37.445Z,1010.68
2022-10-19T00:07:37.428Z,1010.70
2022-10-19T00:08:37.422Z,1010.75
2022-10-19T00:09:37.379Z,1010.68
2022-10-19T00:10:37.402Z,1010.70
2022-10-19T00:11:37.373Z,1010.69
2022-10-19T00:12:37.368Z,1010.73
2022-10-19T00:13:37.345Z,1010.73
2022-10-19T00:14:37.338Z,1010.67
2022-10-19T00:15:37.300Z,1010.70
2022-10-19T00:16:37.355Z,1010.71
2022-10-19T00:17:37.297Z,1010.72
2022-10-19T00:18:37.316Z,1010.72
2022-10-19T00:19:37.251Z,1010.73
2022-10-19T00:20:37.254Z,1010.72
2022-10-19T00:21:37.381Z,1010.76
2022-10-19T00:22:37.234Z,1010.74
2022-10-19T00:23:37.212Z,1010.72
2022-10-19T00:24:37.202Z,1010.73
2022-10-19T00:25:37.208Z,1010.73
2022-10-19T00:26:37.194Z,1010.64
2022-10-19T00:27:37.207Z,1010.71
2022-10-19T00:28:37.195Z,1010.65
2022-10-19T00:29:37.136Z,1010.67
2022-10-19T00:30:37.141Z,1010.67
2022-10-19T00:31:37.137Z,1010.66
2022-10-19T00:32:37.107Z,1010.63
2022-10-19T00:33:37.158Z,1010.62
2022-10-19T00:34:37.078Z,1010.62
2022-10-19T00:35:37.080Z,1010.59
2022-10-19T00:36:37.090Z,1010.61
2022-10-19T00:37:37.059Z,1010.69
2022-10-19T00:38:37.081Z,1010.66
2022-10-19T00:39:37.030Z,1010.71
2022-10-19T00:40:37.006Z,1010.67
2022-10-19T00:41:37.034Z,1010.66
2022-10-19T00:42:37.008Z,1010.67
2022-10-19T00:43:36.978Z,1010.62
2022-10-19T00:44:37.085Z,1010.60
2022-10-19T00:45:36.961Z,1010.58
2022-10-19T00:46:36.965Z,1010.56
2022-10-19T00:47:36.961Z,1010.54
2022-10-19T00:48:36.941Z,1010.51
2022-10-19T00:49:36.944Z,1010.54
2022-10-19T00:50:36.934Z,1010.47
2022-10-19T00:51:36.883Z,1010.50
2022-10-19T00:52:37.046Z,1010.46
2022-10-19T00:53:36.860Z,1010.47
2022-10-19T00:54:36.894Z,1010.46
2022-10-19T00:55:36.875Z,1010.52
2022-10-19T00:56:36.845Z,1010.48
2022-10-19T00:57:36.825Z,1010.43
2022-10-19T00:58:36.836Z,1010.40
2022-10-19T00:59:36.806Z,1010.42
2022-10-19T01:00:36.773Z,1010.40
2022-10-19T01:01:36.816Z,1010.41
2022-10-19T01:02:37.030Z,1010.35
2022-10-19T01:03:36.773Z,1010.36
2022-10-19T01:04:36.727Z,1010.38
2022-10-19T01:05:36.730Z,1010.38
2022-10-19T01:06:36.784Z,1010.37
2022-10-19T01:07:36.990Z,1010.39
2022-10-19T01:08:36.703Z,1010.36
2022-10-19T01:09:36.709Z,1010.38
2022-10-19T01:10:36.681Z,1010.39
2022-10-19T01:11:36.675Z,1010.38
2022-10-19T01:12:36.626Z,1010.43
2022-10-19T01:13:36.641Z,1010.41
2022-10-19T01:14:36.638Z,1010.39
2022-10-19T01:15:36.610Z,1010.40
2022-10-19T01:16:36.607Z,1010.36
2022-10-19T01:17:36.773Z,1010.37
2022-10-19T01:18:36.578Z,1010.30
2022-10-19T01:19:36.592Z,1010.31
2022-10-19T01:20:36.551Z,1010.36
2022-10-19T01:21:36.545Z,1010.34
2022-10-19T01:22:36.532Z,1010.36
2022-10-19T01:23:36.550Z,1010.36
2022-10-19T01:24:39.835Z,1010.37
2022-10-19T01:25:36.503Z,1010.39
2022-10-19T01:26:36.484Z,1010.40
2022-10-19T01:27:36.618Z,1010.46
2022-10-19T01:28:36.539Z,1010.45
2022-10-19T01:29:36.441Z,1010.49
2022-10-19T01:30:36.444Z,1010.48
2022-10-19T01:31:36.412Z,1010.45
2022-10-19T01:32:36.402Z,1010.45
2022-10-19T01:33:36.392Z,1010.42
2022-10-19T01:34:36.436Z,1010.42
2022-10-19T01:35:36.365Z,1010.43
2022-10-19T01:36:36.374Z,1010.43
2022-10-19T01:37:36.797Z,1010.40
2022-10-19T01:38:36.653Z,1010.38
2022-10-19T01:39:36.392Z,1010.43
2022-10-19T01:40:37.344Z,1010.41
2022-10-19T01:41:36.308Z,1010.38
2022-10-19T01:42:36.295Z,1010.41
2022-10-19T01:43:36.284Z,1010.37
2022-10-19T01:44:36.296Z,1010.32
2022-10-19T01:45:36.289Z,1010.27
2022-10-19T01:46:36.305Z,1010.29
2022-10-19T01:47:36.518Z,1010.30
2022-10-19T01:48:36.230Z,1010.28
2022-10-19T01:49:36.221Z,1010.33
2022-10-19T01:50:36.265Z,1010.32
2022-10-19T01:51:36.197Z,1010.41
2022-10-19T01:52:36.431Z,1010.39
2022-10-19T01:53:36.181Z,1010.36
2022-10-19T01:54:36.162Z,1010.35
2022-10-19T01:55:36.165Z,1010.39
2022-10-19T01:56:36.129Z,1010.38
2022-10-19T01:57:36.119Z,1010.35
2022-10-19T01:58:36.108Z,1010.34
2022-10-19T01:59:36.110Z,1010.30
2022-10-19T02:00:36.172Z,1010.35
2022-10-19T02:01:36.073Z,1010.32
2022-10-19T02:02:36.363Z,1010.28
2022-10-19T02:03:36.054Z,1010.26
2022-10-19T02:04:36.065Z,1010.24
2022-10-19T02:05:36.023Z,1010.25
2022-10-19T02:06:36.064Z,1010.23
2022-10-19T02:07:36.002Z,1010.25
2022-10-19T02:08:35.982Z,1010.23
2022-10-19T02:09:35.981Z,1010.23
2022-10-19T02:10:35.966Z,1010.31
2022-10-19T02:11:35.966Z,1010.29
2022-10-19T02:12:36.398Z,1010.28
2022-10-19T02:13:35.923Z,1010.32
2022-10-19T02:14:35.947Z,1010.32
2022-10-19T02:15:35.904Z,1010.31
2022-10-19T02:16:35.915Z,1010.32
2022-10-19T02:17:35.914Z,1010.33
2022-10-19T02:18:35.878Z,1010.37
2022-10-19T02:19:35.881Z,1010.32
2022-10-19T02:20:35.845Z,1010.42
2022-10-19T02:21:35.898Z,1010.39
2022-10-19T02:22:36.105Z,1010.42
2022-10-19T02:23:35.807Z,1010.45
2022-10-19T02:24:35.822Z,1010.36
2022-10-19T02:25:35.820Z,1010.36
2022-10-19T02:26:35.790Z,1010.38
2022-10-19T02:27:35.810Z,1010.37
2022-10-19T02:28:35.762Z,1010.36
2022-10-19T02:29:35.762Z,1010.32
2022-10-19T02:30:35.761Z,1010.35
2022-10-19T02:31:35.721Z,1010.35
2022-10-19T02:32:35.899Z,1010.28
2022-10-19T02:33:35.727Z,1010.29
2022-10-19T02:34:35.681Z,1010.27
2022-10-19T02:35:35.699Z,1010.24
2022-10-19T02:36:35.658Z,1010.23
2022-10-19T02:38:35.641Z,1010.21
2022-10-19T02:39:35.651Z,1010.17
2022-10-19T02:40:35.634Z,1010.14
2022-10-19T02:41:35.603Z,1010.17
2022-10-19T02:42:35.967Z,1010.18
2022-10-19T02:43:35.595Z,1010.24
2022-10-19T02:44:35.628Z,1010.17
2022-10-19T02:45:35.582Z,1010.26
2022-10-19T02:46:35.587Z,1010.20
2022-10-19T02:47:35.861Z,1010.23
2022-10-19T02:48:35.533Z,1010.20
2022-10-19T02:49:35.556Z,1010.27
2022-10-19T02:50:35.521Z,1010.26
2022-10-19T02:51:35.515Z,1010.23
2022-10-19T02:52:35.478Z,1010.23
2022-10-19T02:53:35.464Z,1010.28
2022-10-19T02:54:35.445Z,1010.23
2022-10-19T02:55:35.538Z,1010.26
2022-10-19T02:56:35.445Z,1010.21
2022-10-19T02:57:35.663Z,1010.22
2022-10-19T02:58:35.406Z,1010.23
2022-10-19T02:59:35.396Z,1010.19
2022-10-19T03:00:35.418Z,1010.21
2022-10-19T03:01:35.439Z,1010.22
2022-10-19T03:02:35.370Z,1010.21
2022-10-19T03:03:35.392Z,1010.24
2022-10-19T03:04:35.396Z,1010.21
2022-10-19T03:05:35.352Z,1010.23
2022-10-19T03:06:35.328Z,1010.24
2022-10-19T03:07:35.588Z,1010.23
2022-10-19T03:08:35.332Z,1010.20
2022-10-19T03:09:35.292Z,1010.22
2022-10-19T03:10:35.278Z,1010.23
2022-10-19T03:11:35.279Z,1010.21
2022-10-19T03:12:35.263Z,1010.21
2022-10-19T03:13:35.273Z,1010.13
2022-10-19T03:14:35.251Z,1010.15
2022-10-19T03:15:35.211Z,1010.14
2022-10-19T03:16:35.220Z,1010.15
2022-10-19T03:17:35.591Z,1010.16
2022-10-19T03:18:35.172Z,1010.11
2022-10-19T03:19:35.162Z,1010.13
2022-10-19T03:20:35.172Z,1010.11
2022-10-19T03:21:35.175Z,1010.10
2022-10-19T03:22:35.155Z,1010.12
2022-10-19T03:23:35.131Z,1010.04
2022-10-19T03:24:35.136Z,1010.07
2022-10-19T03:25:35.113Z,1010.07
2022-10-19T03:26:35.103Z,1010.07
2022-10-19T03:27:35.426Z,1010.14
2022-10-19T03:28:35.181Z,1010.09
2022-10-19T03:29:35.054Z,1010.11
2022-10-19T03:30:35.035Z,1010.12
2022-10-19T03:31:35.054Z,1010.11
2022-10-19T03:32:35.015Z,1010.14
2022-10-19T03:33:35.017Z,1010.17
2022-10-19T03:34:35.013Z,1010.18
2022-10-19T03:35:35.015Z,1010.21
2022-10-19T03:36:34.966Z,1010.24
2022-10-19T03:37:35.335Z,1010.26
2022-10-19T03:38:34.947Z,1010.25
2022-10-19T03:39:34.959Z,1010.23
2022-10-19T03:40:34.977Z,1010.25
2022-10-19T03:41:34.930Z,1010.30
2022-10-19T03:42:34.921Z,1010.30
2022-10-19T03:43:34.901Z,1010.34
2022-10-19T03:44:34.891Z,1010.32
2022-10-19T03:45:34.877Z,1010.36
2022-10-19T03:46:34.920Z,1010.32
2022-10-19T03:47:35.175Z,1010.37
2022-10-19T03:48:34.829Z,1010.37
2022-10-19T03:49:36.860Z,1010.31
2022-10-19T03:50:34.824Z,1010.37
2022-10-19T03:51:34.822Z,1010.46
2022-10-19T03:52:34.842Z,1010.42
2022-10-19T03:53:34.797Z,1010.46
2022-10-19T03:54:34.781Z,1010.43
2022-10-19T03:55:34.812Z,1010.42
2022-10-19T03:56:34.765Z,1010.44
2022-10-19T03:57:35.088Z,1010.39
2022-10-19T03:58:34.720Z,1010.44
2022-10-19T03:59:34.723Z,1010.40
2022-10-19T04:00:34.715Z,1010.44
2022-10-19T04:01:34.731Z,1010.43
2022-10-19T04:02:34.681Z,1010.43
2022-10-19T04:04:34.673Z,1010.45
2022-10-19T04:05:34.646Z,1010.46
2022-10-19T04:06:34.624Z,1010.48
2022-10-19T04:07:34.824Z,1010.50
2022-10-19T04:08:34.617Z,1010.50
2022-10-19T04:09:34.584Z,1010.54
2022-10-19T04:10:34.605Z,1010.57
2022-10-19T04:11:34.630Z,1010.60
2022-10-19T04:12:34.619Z,1010.59
2022-10-19T04:13:34.555Z,1010.60
2022-10-19T04:14:52.606Z,1010.63
2022-10-19T04:15:35.532Z,1010.60
2022-10-19T04:16:34.516Z,1010.60
2022-10-19T04:17:34.861Z,1010.58
2022-10-19T04:18:34.507Z,1010.57
2022-10-19T04:19:34.509Z,1010.55
2022-10-19T04:20:34.468Z,1010.56
2022-10-19T04:21:34.474Z,1010.57
2022-10-19T04:22:34.508Z,1010.61
2022-10-19T04:23:34.459Z,1010.60
2022-10-19T04:24:34.472Z,1010.57
2022-10-19T04:25:34.401Z,1010.58
2022-10-19T04:26:34.421Z,1010.59
2022-10-19T04:27:34.637Z,1010.61
2022-10-19T04:28:34.484Z,1010.62
2022-10-19T04:29:34.351Z,1010.58
2022-10-19T04:30:34.364Z,1010.66
2022-10-19T04:31:34.362Z,1010.63
2022-10-19T04:32:34.344Z,1010.67
2022-10-19T04:33:34.435Z,1010.63
2022-10-19T04:34:36.429Z,1010.69
2022-10-19T04:35:35.307Z,1010.64
2022-10-19T04:36:34.316Z,1010.64
2022-10-19T04:37:34.617Z,1010.65
2022-10-19T04:38:34.280Z,1010.64
2022-10-19T04:39:34.309Z,1010.66
2022-10-19T04:40:34.257Z,1010.67
2022-10-19T04:41:34.245Z,1010.66
2022-10-19T04:42:34.238Z,1010.67
2022-10-19T04:43:34.194Z,1010.66
2022-10-19T04:44:34.246Z,1010.66
2022-10-19T04:45:34.185Z,1010.69
2022-10-19T04:46:34.203Z,1010.67
2022-10-19T04:47:34.263Z,1010.69
2022-10-19T04:48:34.144Z,1010.68
2022-10-19T04:49:34.126Z,1010.69
2022-10-19T04:50:34.160Z,1010.74
2022-10-19T04:51:34.116Z,1010.75
2022-10-19T04:52:34.117Z,1010.73
2022-10-19T04:53:34.093Z,1010.74
2022-10-19T04:54:34.109Z,1010.74
2022-10-19T04:55:34.155Z,1010.74
2022-10-19T04:56:34.067Z,1010.70
2022-10-19T04:57:34.259Z,1010.76
2022-10-19T04:58:34.042Z,1010.75
2022-10-19T04:59:34.022Z,1010.77
2022-10-19T05:00:34.062Z,1010.75
2022-10-19T05:01:34.049Z,1010.75
2022-10-19T05:02:34.015Z,1010.80
2022-10-19T05:03:33.981Z,1010.79
2022-10-19T05:04:33.986Z,1010.83
2022-10-19T05:05:33.940Z,1010.84
2022-10-19T05:06:33.990Z,1010.83
2022-10-19T05:07:34.152Z,1010.85
2022-10-19T05:08:33.922Z,1010.82
2022-10-19T05:09:33.909Z,1010.83
2022-10-19T05:10:33.894Z,1010.83
2022-10-19T05:11:33.904Z,1010.83
2022-10-19T05:12:33.862Z,1010.82
2022-10-19T05:13:33.908Z,1010.80
2022-10-19T05:14:35.023Z,1010.81
2022-10-19T05:15:33.826Z,1010.78
2022-10-19T05:16:33.837Z,1010.80
2022-10-19T05:17:34.126Z,1010.82
2022-10-19T05:18:33.814Z,1010.81
2022-10-19T05:19:33.805Z,1010.79
2022-10-19T05:20:33.775Z,1010.81
2022-10-19T05:21:33.780Z,1010.84
2022-10-19T05:22:33.768Z,1010.78
2022-10-19T05:23:33.737Z,1010.81
2022-10-19T05:24:33.765Z,1010.78
2022-10-19T05:25:33.759Z,1010.77
2022-10-19T05:26:33.739Z,1010.77
2022-10-19T05:27:34.020Z,1010.74
2022-10-19T05:28:33.717Z,1010.80
2022-10-19T05:29:33.682Z,1010.77
2022-10-19T05:30:33.796Z,1010.78
2022-10-19T05:31:33.660Z,1010.81
2022-10-19T05:32:33.650Z,1010.82
2022-10-19T05:33:33.641Z,1010.77
2022-10-19T05:34:33.619Z,1010.80
2022-10-19T05:35:33.606Z,1010.77
2022-10-19T05:36:33.609Z,1010.84
2022-10-19T05:37:33.844Z,1010.86
2022-10-19T05:38:33.609Z,1010.79
2022-10-19T05:39:33.562Z,1010.78
2022-10-19T05:40:33.554Z,1010.83
2022-10-19T05:41:33.597Z,1010.82
2022-10-19T05:42:33.535Z,1010.81
2022-10-19T05:43:33.525Z,1010.83
2022-10-19T05:44:33.567Z,1010.82
2022-10-19T05:45:33.504Z,1010.84
2022-10-19T05:46:33.513Z,1010.81
2022-10-19T05:47:33.845Z,1010.79
2022-10-19T05:48:33.489Z,1010.84
2022-10-19T05:49:33.456Z,1010.82
2022-10-19T05:50:33.436Z,1010.80
2022-10-19T05:51:33.443Z,1010.80
2022-10-19T05:52:33.445Z,1010.81
2022-10-19T05:53:33.438Z,1010.86
2022-10-19T05:54:33.384Z,1010.84
2022-10-19T05:55:33.404Z,1010.84
2022-10-19T05:56:33.354Z,1010.90
2022-10-19T05:57:33.724Z,1010.92
2022-10-19T05:58:33.398Z,1010.90
2022-10-19T05:59:33.358Z,1010.93
2022-10-19T06:00:33.356Z,1010.99
2022-10-19T06:01:33.414Z,1011.00
2022-10-19T06:02:33.310Z,1011.04
2022-10-19T06:03:33.276Z,1011.00
2022-10-19T06:04:33.320Z,1011.04
2022-10-19T06:05:33.247Z,1011.05
2022-10-19T06:06:33.261Z,1011.12
2022-10-19T06:07:33.715Z,1011.15
2022-10-19T06:08:33.216Z,1011.09
2022-10-19T06:09:33.228Z,1011.10
2022-10-19T06:10:33.242Z,1011.15
2022-10-19T06:11:33.252Z,1011.15
2022-10-19T06:12:33.181Z,1011.14
2022-10-19T06:13:33.158Z,1011.16
2022-10-19T06:14:33.183Z,1011.14
2022-10-19T06:15:33.192Z,1011.18
2022-10-19T06:16:33.142Z,1011.20
2022-10-19T06:17:33.387Z,1011.19
2022-10-19T06:18:33.143Z,1011.17
2022-10-19T06:19:33.122Z,1011.16
2022-10-19T06:20:33.093Z,1011.16
2022-10-19T06:21:33.090Z,1011.18
2022-10-19T06:22:33.064Z,1011.16
2022-10-19T06:23:33.091Z,1011.16
2022-10-19T06:24:33.059Z,1011.19
2022-10-19T06:25:33.037Z,1011.21
2022-10-19T06:26:33.045Z,1011.23
2022-10-19T06:27:33.450Z,1011.21
2022-10-19T06:28:33.054Z,1011.20
2022-10-19T06:29:32.983Z,1011.21
2022-10-19T06:30:33.057Z,1011.24
2022-10-19T06:31:32.978Z,1011.21
2022-10-19T06:32:32.957Z,1011.23
2022-10-19T06:33:32.988Z,1011.19
2022-10-19T06:34:32.989Z,1011.22
2022-10-19T06:35:32.906Z,1011.20
2022-10-19T06:36:32.909Z,1011.19
2022-10-19T06:37:33.298Z,1011.23
2022-10-19T06:38:32.885Z,1011.19
2022-10-19T06:39:32.897Z,1011.25
2022-10-19T06:40:32.905Z,1011.29
2022-10-19T06:41:32.869Z,1011.23
2022-10-19T06:42:32.840Z,1011.29
2022-10-19T06:43:32.818Z,1011.33
2022-10-19T06:44:32.830Z,1011.32
2022-10-19T06:45:35.880Z,1011.32
2022-10-19T06:46:32.788Z,1011.30
2022-10-19T06:47:33.122Z,1011.28
2022-10-19T06:48:32.802Z,1011.28
2022-10-19T06:49:32.761Z,1011.28
2022-10-19T06:50:32.758Z,1011.24
2022-10-19T06:51:32.759Z,1011.25
2022-10-19T06:52:33.212Z,1011.30
2022-10-19T06:53:32.731Z,1011.32
2022-10-19T06:54:32.715Z,1011.27
2022-10-19T06:55:32.670Z,1011.25
2022-10-19T06:56:32.690Z,1011.22
2022-10-19T06:57:32.846Z,1011.26
2022-10-19T06:58:32.671Z,1011.27
2022-10-19T06:59:32.621Z,1011.25
2022-10-19T07:00:32.645Z,1011.27
2022-10-19T07:01:32.646Z,1011.30
2022-10-19T07:02:33.329Z,1011.25
2022-10-19T07:03:32.585Z,1011.29
2022-10-19T07:04:32.594Z,1011.27
2022-10-19T07:05:32.561Z,1011.28
2022-10-19T07:06:32.552Z,1011.26
2022-10-19T07:07:32.926Z,1011.28
2022-10-19T07:08:32.525Z,1011.28
2022-10-19T07:09:32.558Z,1011.28
2022-10-19T07:10:32.515Z,1011.32
2022-10-19T07:11:32.507Z,1011.31
2022-10-19T07:12:32.485Z,1011.35
2022-10-19T07:13:32.495Z,1011.33
2022-10-19T07:14:32.521Z,1011.34
2022-10-19T07:15:32.447Z,1011.35
2022-10-19T07:16:32.450Z,1011.36
2022-10-19T07:17:32.941Z,1011.42
2022-10-19T07:18:32.464Z,1011.40
2022-10-19T07:19:32.432Z,1011.40
2022-10-19T07:20:32.387Z,1011.39
2022-10-19T07:21:32.391Z,1011.41
2022-10-19T07:22:32.373Z,1011.42
2022-10-19T07:23:32.403Z,1011.42
2022-10-19T07:24:32.361Z,1011.44
2022-10-19T07:25:32.372Z,1011.48
2022-10-19T07:26:32.360Z,1011.44
2022-10-19T07:27:37.378Z,1011.46
2022-10-19T07:28:33.352Z,1011.47
2022-10-19T07:29:32.285Z,1011.49
2022-10-19T07:30:32.303Z,1011.49
2022-10-19T07:31:32.265Z,1011.48
2022-10-19T07:32:32.250Z,1011.47
2022-10-19T07:33:32.244Z,1011.50
2022-10-19T07:34:32.275Z,1011.47
2022-10-19T07:35:32.241Z,1011.48
2022-10-19T07:36:32.225Z,1011.50
2022-10-19T07:37:32.598Z,1011.49
2022-10-19T07:38:32.202Z,1011.51
2022-10-19T07:39:32.208Z,1011.41
2022-10-19T07:40:32.183Z,1011.42
2022-10-19T07:41:32.133Z,1011.42
2022-10-19T07:42:32.124Z,1011.37
2022-10-19T07:43:32.158Z,1011.41
2022-10-19T07:44:32.166Z,1011.47
2022-10-19T07:45:32.095Z,1011.43
2022-10-19T07:46:32.118Z,1011.47
2022-10-19T07:47:32.422Z,1011.48
2022-10-19T07:48:32.091Z,1011.48
2022-10-19T07:49:32.051Z,1011.45
2022-10-19T07:50:32.095Z,1011.46
2022-10-19T07:51:32.067Z,1011.46
2022-10-19T07:52:34.448Z,1011.47
2022-10-19T07:53:32.040Z,1011.48
2022-10-19T07:54:31.996Z,1011.48
2022-10-19T07:55:31.977Z,1011.48
2022-10-19T07:56:31.997Z,1011.43
2022-10-19T07:57:31.983Z,1011.49
2022-10-19T07:58:31.981Z,1011.48
2022-10-19T07:59:31.943Z,1011.51
2022-10-19T08:00:31.976Z,1011.51
2022-10-19T08:01:31.929Z,1011.52
2022-10-19T08:02:39.662Z,1011.53
2022-10-19T08:05:32.903Z,1011.52
2022-10-19T08:06:31.883Z,1011.55
2022-10-19T08:07:31.904Z,1011.49
2022-10-19T08:08:31.881Z,1011.53
2022-10-19T08:09:52.180Z,1011.49
2022-10-19T08:10:32.801Z,1011.47
2022-10-19T08:11:31.825Z,1011.50
2022-10-19T08:12:32.144Z,1011.47
2022-10-19T08:13:31.764Z,1011.51
2022-10-19T08:14:31.753Z,1011.54
2022-10-19T08:15:31.743Z,1011.57
2022-10-19T08:16:31.774Z,1011.57
2022-10-19T08:17:31.748Z,1011.58
2022-10-19T08:19:36.674Z,1011.52
2022-10-19T08:20:31.686Z,1011.53
2022-10-19T08:21:31.687Z,1011.50
2022-10-19T08:22:31.712Z,1011.46
2022-10-19T08:23:31.729Z,1011.53
2022-10-19T08:24:31.680Z,1011.51
2022-10-19T08:25:31.626Z,1011.51
2022-10-19T08:26:31.628Z,1011.50
2022-10-19T08:27:31.664Z,1011.47
2022-10-19T08:28:31.616Z,1011.48
2022-10-19T08:29:31.961Z,1011.42
2022-10-19T08:30:31.610Z,1011.47
2022-10-19T08:31:31.558Z,1011.49
2022-10-19T08:32:31.846Z,1011.49
2022-10-19T08:33:31.564Z,1011.48
2022-10-19T08:34:31.595Z,1011.50
2022-10-19T08:35:31.544Z,1011.48
2022-10-19T08:36:31.557Z,1011.44
2022-10-19T08:37:45.753Z,1011.48
2022-10-19T08:38:32.492Z,1011.47
2022-10-19T08:39:31.538Z,1011.53
2022-10-19T08:40:31.468Z,1011.50
2022-10-19T08:41:31.457Z,1011.50
2022-10-19T08:42:31.780Z,1011.47
2022-10-19T08:43:31.434Z,1011.48
2022-10-19T08:44:31.435Z,1011.40
2022-10-19T08:45:31.468Z,1011.44
2022-10-19T08:46:31.407Z,1011.40
2022-10-19T08:47:31.513Z,1011.43
2022-10-19T08:48:31.407Z,1011.39
2022-10-19T08:49:31.378Z,1011.40
2022-10-19T08:50:31.355Z,1011.38
2022-10-19T08:51:31.331Z,1011.39
2022-10-19T08:52:34.426Z,1011.37
2022-10-19T08:53:31.374Z,1011.38
2022-10-19T08:54:31.308Z,1011.42
2022-10-19T08:55:31.348Z,1011.40
2022-10-19T08:56:51.122Z,1011.41
2022-10-19T08:57:32.690Z,1011.38
2022-10-19T08:58:31.245Z,1011.38
2022-10-19T08:59:31.255Z,1011.39
2022-10-19T09:00:31.304Z,1011.42
2022-10-19T09:01:33.856Z,1011.38
2022-10-19T09:02:32.440Z,1011.36
2022-10-19T09:03:37.768Z,1011.39
2022-10-19T09:04:32.217Z,1011.35
2022-10-19T09:05:31.235Z,1011.36
2022-10-19T09:06:31.163Z,1011.32
2022-10-19T09:07:31.163Z,1011.32
2022-10-19T09:08:31.177Z,1011.30
2022-10-19T09:09:31.133Z,1011.35
2022-10-19T09:10:31.174Z,1011.34
2022-10-19T09:11:31.113Z,1011.32
2022-10-19T09:12:31.106Z,1011.34
2022-10-19T09:13:41.396Z,1011.30
2022-10-19T09:14:32.108Z,1011.30
2022-10-19T09:15:31.126Z,1011.35
2022-10-19T09:16:31.055Z,1011.36
2022-10-19T09:17:31.036Z,1011.35
2022-10-19T09:18:31.036Z,1011.29
2022-10-19T09:19:31.042Z,1011.33
2022-10-19T09:20:31.056Z,1011.29
2022-10-19T09:21:36.883Z,1011.32
2022-10-19T09:22:32.243Z,1011.29
2022-10-19T09:23:30.968Z,1011.32
2022-10-19T09:24:30.958Z,1011.29
2022-10-19T09:25:30.954Z,1011.27
2022-10-19T09:26:30.975Z,1011.27
2022-10-19T09:27:30.939Z,1011.27
2022-10-19T09:28:36.521Z,1011.32
2022-10-19T09:29:31.931Z,1011.32
2022-10-19T09:30:30.891Z,1011.34
2022-10-19T09:31:31.882Z,1011.33
2022-10-19T09:32:30.909Z,1011.35
2022-10-19T09:33:30.858Z,1011.31
2022-10-19T09:34:30.872Z,1011.28
2022-10-19T09:35:30.824Z,1011.34
2022-10-19T09:36:49.386Z,1011.27
2022-10-19T09:37:31.831Z,1011.29
2022-10-19T09:38:30.873Z,1011.32
2022-10-19T09:39:30.812Z,1011.31
2022-10-19T09:40:30.789Z,1011.41
2022-10-19T09:41:30.750Z,1011.35
2022-10-19T09:42:30.761Z,1011.32
2022-10-19T09:43:30.784Z,1011.35
2022-10-19T09:44:30.741Z,1011.30
2022-10-19T09:45:30.731Z,1011.36
2022-10-19T09:46:30.764Z,1011.38
2022-10-19T09:47:30.747Z,1011.40
2022-10-19T09:48:30.670Z,1011.39
2022-10-19T09:49:30.706Z,1011.38
2022-10-19T09:50:30.652Z,1011.40
2022-10-19T09:51:30.703Z,1011.33
2022-10-19T09:52:30.657Z,1011.29
2022-10-19T09:53:30.705Z,1011.32
2022-10-19T09:54:30.625Z,1011.29
2022-10-19T09:55:30.607Z,1011.34
2022-10-19T09:56:30.588Z,1011.28
2022-10-19T09:57:30.743Z,1011.33
2022-10-19T09:58:33.001Z,1011.32
2022-10-19T09:59:30.585Z,1011.31
2022-10-19T10:00:30.551Z,1011.38
2022-10-19T10:01:39.962Z,1011.38
2022-10-19T10:02:31.730Z,1011.44
2022-10-19T10:03:30.568Z,1011.35
2022-10-19T10:04:30.565Z,1011.32
2022-10-19T10:05:30.489Z,1011.37
2022-10-19T10:06:30.472Z,1011.33
2022-10-19T10:07:30.484Z,1011.31
2022-10-19T10:08:30.495Z,1011.30
2022-10-19T10:09:30.489Z,1011.27
2022-10-19T10:10:30.687Z,1011.28
2022-10-19T10:11:30.400Z,1011.28
2022-10-19T10:12:30.399Z,1011.27
2022-10-19T10:13:30.394Z,1011.24
2022-10-19T10:14:30.364Z,1011.26
2022-10-19T10:15:30.517Z,1011.22
2022-10-19T10:16:30.343Z,1011.26
2022-10-19T10:17:30.330Z,1011.25
2022-10-19T10:18:30.356Z,1011.30
2022-10-19T10:19:30.312Z,1011.31
2022-10-19T10:20:30.372Z,1011.31
2022-10-19T10:21:30.355Z,1011.28
2022-10-19T10:22:30.275Z,1011.31
2022-10-19T10:23:30.275Z,1011.30
2022-10-19T10:24:30.267Z,1011.32
2022-10-19T10:25:30.269Z,1011.33
2022-10-19T10:26:30.307Z,1011.28
2022-10-19T10:27:30.271Z,1011.30
2022-10-19T10:28:30.228Z,1011.34
2022-10-19T10:29:30.194Z,1011.33
2022-10-19T10:30:30.209Z,1011.29
2022-10-19T10:31:30.197Z,1011.32
2022-10-19T10:32:30.186Z,1011.34
2022-10-19T10:33:45.954Z,1011.41
2022-10-19T10:34:45.566Z,1011.40
2022-10-19T10:35:31.139Z,1011.39
2022-10-19T10:36:30.170Z,1011.34
2022-10-19T10:37:30.121Z,1011.38
2022-10-19T10:38:30.161Z,1011.36
2022-10-19T10:39:30.131Z,1011.39
2022-10-19T10:40:30.082Z,1011.37
2022-10-19T10:41:30.049Z,1011.33
2022-10-19T10:42:30.073Z,1011.35
2022-10-19T10:43:30.046Z,1011.35
2022-10-19T10:44:30.091Z,1011.32
2022-10-19T10:45:30.044Z,1011.32
2022-10-19T10:46:30.021Z,1011.31
2022-10-19T10:47:30.002Z,1011.33
2022-10-19T10:48:29.995Z,1011.31
2022-10-19T10:49:29.993Z,1011.33
2022-10-19T10:50:29.953Z,1011.32
2022-10-19T10:51:29.956Z,1011.36
2022-10-19T10:52:30.027Z,1011.32
2022-10-19T10:53:29.960Z,1011.34
2022-10-19T10:54:29.977Z,1011.28
2022-10-19T10:55:29.917Z,1011.28
2022-10-19T10:56:29.902Z,1011.27
2022-10-19T10:57:29.920Z,1011.32
2022-10-19T10:58:30.437Z,1011.29
2022-10-19T10:59:29.885Z,1011.32
2022-10-19T11:00:29.835Z,1011.34
2022-10-19T11:01:30.009Z,1011.29
2022-10-19T11:02:29.830Z,1011.30
2022-10-19T11:03:29.866Z,1011.26
2022-10-19T11:04:29.829Z,1011.30
2022-10-19T11:05:29.785Z,1011.29
2022-10-19T11:06:29.808Z,1011.30
2022-10-19T11:07:29.759Z,1011.32
2022-10-19T11:08:29.767Z,1011.26
2022-10-19T11:09:29.772Z,1011.25
2022-10-19T11:10:29.719Z,1011.24
2022-10-19T11:11:29.722Z,1011.21
2022-10-19T11:12:34.285Z,1011.22
2022-10-19T11:13:30.713Z,1011.14
2022-10-19T11:14:29.815Z,1011.15
2022-10-19T11:16:29.654Z,1011.16
2022-10-19T11:17:29.660Z,1011.18
2022-10-19T11:18:29.667Z,1011.14
2022-10-19T11:19:29.636Z,1011.15
2022-10-19T11:20:29.678Z,1011.12
2022-10-19T11:21:29.611Z,1011.13
2022-10-19T11:22:29.582Z,1011.07
2022-10-19T11:23:29.588Z,1011.07
2022-10-19T11:25:29.563Z,1010.99
2022-10-19T11:26:29.563Z,1010.98
2022-10-19T11:27:29.546Z,1010.91
2022-10-19T11:28:29.528Z,1010.95
2022-10-19T11:29:29.506Z,1010.92
2022-10-19T11:30:29.530Z,1010.91
2022-10-19T11:31:29.779Z,1010.89
2022-10-19T11:32:29.495Z,1010.89
2022-10-19T11:33:29.466Z,1010.91
2022-10-19T11:34:29.449Z,1010.91
2022-10-19T11:35:29.449Z,1010.88
2022-10-19T11:36:29.451Z,1010.87
2022-10-19T11:37:29.435Z,1010.87
2022-10-19T11:38:30.373Z,1010.80
2022-10-19T11:39:29.411Z,1010.75
2022-10-19T11:40:29.378Z,1010.76
2022-10-19T11:41:29.385Z,1010.71
2022-10-19T11:42:29.411Z,1010.72
2022-10-19T11:43:29.360Z,1010.71
2022-10-19T11:44:29.329Z,1010.71
2022-10-19T11:45:29.320Z,1010.70
2022-10-19T11:46:29.410Z,1010.68
2022-10-19T11:47:29.300Z,1010.73
2022-10-19T11:48:29.301Z,1010.69
2022-10-19T11:49:29.270Z,1010.68
2022-10-19T11:50:31.203Z,1010.70
2022-10-19T11:51:29.255Z,1010.65
2022-10-19T11:52:29.300Z,1010.63
2022-10-19T11:53:29.258Z,1010.67
2022-10-19T11:54:29.222Z,1010.67
2022-10-19T11:55:29.217Z,1010.69
2022-10-19T11:56:39.098Z,1010.67
2022-10-19T11:57:30.225Z,1010.57
2022-10-19T11:58:34.445Z,1010.57
2022-10-19T11:59:30.168Z,1010.54
2022-10-19T12:00:38.560Z,1010.57
2022-10-19T12:01:30.147Z,1010.54
2022-10-19T12:02:29.215Z,1010.53
2022-10-19T12:03:29.148Z,1010.53
2022-10-19T12:04:29.096Z,1010.48
2022-10-19T12:05:29.110Z,1010.48
2022-10-19T12:06:29.091Z,1010.47
2022-10-19T12:07:29.060Z,1010.47
2022-10-19T12:08:29.200Z,1010.51
2022-10-19T12:09:29.078Z,1010.44
2022-10-19T12:10:29.031Z,1010.44
2022-10-19T12:11:29.017Z,1010.44
2022-10-19T12:12:29.009Z,1010.44